• Join FlightAware (Why Join?)
  • Login
  • US Flag 
06:14PM EST


 

Airport Tracker/Info


-or-


 

Live Flight TrackerFlight Track Log ✈ N173DS ✈ 15-Apr-2014 ✈ KJAX - KTPA

Flight Track Log - Related Links

Times and Time Zones

All times are in EDT time to prevent confusion due to time zone crossing. See the N173DS flight status page for this flight to view local times or setup timezone preferences in your user account.

Time Position Orientation Groundspeed Altitude Reporting Facility
EDT Latitude Longitude Course Direction KTS MPH feet Rate Location/Type
09:38AM 30.4386 -81.7217 190° South 219 252 3,800  Level Jacksonville Center
09:39AM 30.3717 -81.7056 168° South 253 291 6,100 2,529 Climbing Jacksonville Center
09:40AM 30.2964 -81.6872 168° South 268 308 8,900 2,459 Climbing Jacksonville Center
09:41AM 30.2125 -81.6692 169° South 321 369 11,100 2,328 Climbing Jacksonville Center
09:42AM 30.1375 -81.6819 188° South 315 362 13,400 1,934 Climbing Jacksonville Center
09:43AM 30.0397 -81.7169 197° South 324 373 15,000 750 Climbing Jacksonville Center
09:44AM 29.9442 -81.7492 196° South 358 412 15,000  Level Jacksonville Center
09:45AM 29.8461 -81.7792 195° South 363 418 15,000 -51 Level Jacksonville Center
09:46AM 29.7567 -81.8089 196° South 376 433 14,900 -52 Descending Jacksonville Center
09:47AM 29.6567 -81.8433 197° South 376 433 14,900  Level Jacksonville Center
09:48AM 29.5547 -81.8756 195° South 376 433 14,900  Level Jacksonville Center
09:49AM 29.4547 -81.9100 197° South 376 433 14,900  Level Jacksonville Center
09:50AM 29.3506 -81.9419 195° South 376 433 14,900  Level Jacksonville Center
09:51AM 29.2508 -81.9764 197° South 376 433 14,900  Level Jacksonville Center
09:52AM 29.1528 -82.0033 193° South 376 433 14,900  Level Jacksonville Center
09:53AM 29.0800 -82.0278 196° South 365 420 14,900 -700 Level Jacksonville Center
09:54AM 28.9947 -82.0831 210° Southwest 340 391 13,500 -1,000 Descending Jacksonville Center
09:55AM 28.9075 -82.1406 210° Southwest 332 382 12,900 -300 Descending Jacksonville Center
09:56AM 28.8306 -82.1981 213° Southwest 332 382 12,900 -356 Level Jacksonville Center
09:58AM 28.6500 -82.2667 198° South 283 326 11,700 -564 Descending Tampa TRACON
09:59AM 28.5833 -82.2500 168° South 286 329 11,000 -750 Descending Tampa TRACON
10:00AM 28.5000 -82.2500 180° South 274 315 10,200 -1,150 Descending Tampa TRACON
10:01AM 28.4167 -82.2500 180° South 273 314 8,700 -1,450 Descending Tampa TRACON
10:02AM 28.3500 -82.2667 192° South 265 305 7,300 -1,200 Descending Tampa TRACON
10:03AM 28.3000 -82.3167 221° Southwest 247 284 6,300 -1,150 Descending Tampa TRACON
10:04AM 28.2667 -82.3833 240° Southwest 249 287 5,000 -1,050 Descending Tampa TRACON
10:05AM 28.2500 -82.4500 254° West 212 244 4,200 -800 Descending Tampa TRACON
10:06AM 28.2333 -82.5000 249° West 175 201 3,400 -600 Descending Tampa TRACON
10:07AM 28.1833 -82.5167 196° South 162 186 3,000 -200 Descending Tampa TRACON
10:08AM 28.1500 -82.5167 180° South 153 176 3,000 -400 Level Tampa TRACON
10:09AM 28.1000 -82.5333 196° South 152 175 2,200 -750 Descending Tampa TRACON
10:10AM 28.0500 -82.5333 180° South 149 171 1,500 -750 Descending Tampa TRACON
10:11AM 28.0167 -82.5333 180° South 135 155 700 -800 Descending Tampa TRACON
10:13AM 27.9755 -82.5332 170° South  Level Estimated
10:20AM 27.9755 -82.5332 170° South  Level Estimated
10:21AM 27.9755 -82.5332 121° Southeast  Level Estimated